Time;durP1;ratioP1;P1;durP2;ratioP2;P2;SDS_P1;SDS_P2;PMS_P1;PMS_P2;Temp;Humidity;BMP_temperature;BMP_pressure;BME280_temperature;BME280_humidity;BME280_pressure;Samples;Min_cycle;Max_cycle;Signal;HPM_P1;HPM_P2
2023/03/12 00:01:09;;;;;;;2.97;2.50;;;;;;;-3.64;100.00;95890.38;5090583;28;20440;-75
2023/03/12 00:03:36;;;;;;;3.00;2.80;;;;;;;-3.77;100.00;95876.06;5090696;28;20493;-75
2023/03/12 00:06:03;;;;;;;4.20;2.80;;;;;;;-3.82;100.00;95860.53;5090498;28;20450;-75
2023/03/12 00:08:36;;;;;;;2.70;2.47;;;;;;;-3.68;100.00;95879.75;5090534;28;20427;-74
2023/03/12 00:11:12;;;;;;;2.53;2.30;;;;;;;-3.59;100.00;95909.28;5090469;28;20439;-74
2023/03/12 00:13:39;;;;;;;10.70;3.07;;;;;;;-3.78;100.00;95884.06;5090662;28;20477;-74
2023/03/12 00:16:12;;;;;;;2.87;2.63;;;;;;;-3.63;100.00;95910.00;5090585;28;20484;-74
2023/03/12 00:18:39;;;;;;;3.43;3.10;;;;;;;-3.63;100.00;95889.34;5090487;28;20423;-74
2023/03/12 00:21:07;;;;;;;2.77;2.57;;;;;;;-3.60;100.00;95912.13;5090310;28;20810;-74
2023/03/12 00:23:34;;;;;;;4.53;2.57;;;;;;;-3.72;100.00;95903.75;5090265;28;20481;-74
2023/03/12 00:26:04;;;;;;;2.57;2.37;;;;;;;-3.68;100.00;95915.91;5074074;28;20416;-74
2023/03/12 00:28:30;;;;;;;3.30;3.10;;;;;;;-3.69;100.00;95918.75;5053519;28;20439;-74
2023/03/12 00:30:57;;;;;;;3.80;3.50;;;;;;;-3.73;100.00;95923.63;5070116;28;20420;-75
2023/03/12 00:33:25;;;;;;;6.63;5.10;;;;;;;-3.84;100.00;95903.91;5071268;28;20487;-75
2023/03/12 00:35:53;;;;;;;9.27;7.33;;;;;;;-3.76;100.00;95918.16;5053383;28;20509;-74
2023/03/12 00:38:19;;;;;;;9.53;6.93;;;;;;;-3.90;100.00;95904.88;5065550;28;20888;-74
2023/03/12 00:40:47;;;;;;;8.83;7.87;;;;;;;-3.91;100.00;95900.75;5067930;28;20439;-74
2023/03/12 00:43:14;;;;;;;11.77;8.90;;;;;;;-3.85;100.00;95917.84;5071221;28;20973;-74
2023/03/12 00:45:41;;;;;;;11.57;9.07;;;;;;;-4.19;100.00;95863.84;5056991;28;20450;-74
2023/03/12 00:48:07;;;;;;;7.50;6.70;;;;;;;-3.90;100.00;95915.19;5090077;28;20887;-73
2023/03/12 00:50:34;;;;;;;9.23;8.33;;;;;;;-3.84;100.00;95927.16;5055311;28;20440;-73
2023/03/12 00:53:01;;;;;;;8.90;7.33;;;;;;;-4.09;100.00;95903.69;5053189;28;20469;-73
2023/03/12 00:55:28;;;;;;;7.00;6.17;;;;;;;-4.08;100.00;95897.50;5069824;28;20534;-73
2023/03/12 00:57:54;;;;;;;5.40;4.90;;;;;;;-4.10;100.00;95927.94;5053317;28;20441;-73
2023/03/12 01:00:21;;;;;;;6.67;5.17;;;;;;;-4.41;100.00;95890.69;5073155;28;20463;-73
2023/03/12 01:02:50;;;;;;;5.23;4.83;;;;;;;-4.37;100.00;95894.38;5069977;28;20990;-73
2023/03/12 01:05:16;;;;;;;6.67;5.90;;;;;;;-4.32;100.00;95902.94;5076001;28;20437;-73
2023/03/12 01:07:43;;;;;;;4.50;4.17;;;;;;;-4.30;100.00;95908.63;5078692;28;20804;-73
2023/03/12 01:10:14;;;;;;;4.77;4.10;;;;;;;-4.19;100.00;95930.16;5070209;28;20443;-73
2023/03/12 01:12:41;;;;;;;7.90;4.97;;;;;;;-4.35;100.00;95894.91;5073096;28;20471;-73
2023/03/12 01:15:09;;;;;;;5.97;4.97;;;;;;;-4.36;100.00;95894.13;5073294;28;20426;-73
2023/03/12 01:17:35;;;;;;;7.00;4.60;;;;;;;-4.43;100.00;95898.69;5073036;28;20984;-73
2023/03/12 01:20:03;;;;;;;6.20;4.77;;;;;;;-4.46;100.00;95889.63;5079969;28;20521;-73
2023/03/12 01:22:29;;;;;;;9.17;5.37;;;;;;;-4.37;100.00;95908.03;5094384;28;20534;-73
2023/03/12 01:24:56;;;;;;;7.63;6.23;;;;;;;-4.39;100.00;95889.44;5068044;28;20447;-73
2023/03/12 01:27:23;;;;;;;10.10;7.93;;;;;;;-4.56;100.00;95862.94;5093048;28;20424;-73
2023/03/12 01:29:49;;;;;;;12.40;9.00;;;;;;;-4.52;100.00;95871.78;5056324;28;20818;-73
2023/03/12 01:32:16;;;;;;;13.23;8.57;;;;;;;-4.54;100.00;95892.66;5072636;28;20790;-73
2023/03/12 01:34:43;;;;;;;12.30;10.23;;;;;;;-4.56;100.00;95891.31;5085867;28;20860;-73
2023/03/12 01:37:10;;;;;;;12.50;10.47;;;;;;;-4.69;100.00;95868.47;5074031;28;20770;-73
2023/03/12 01:39:37;;;;;;;14.80;10.07;;;;;;;-4.41;100.00;95906.16;5056112;28;20519;-73
2023/03/12 01:42:04;;;;;;;14.20;9.33;;;;;;;-4.60;100.00;95891.03;5069407;28;20975;-73
2023/03/12 01:44:51;;;;;;;14.90;9.60;;;;;;;-4.47;100.00;95908.69;5080944;28;20446;-73
2023/03/12 01:47:18;;;;;;;15.43;10.30;;;;;;;-4.55;100.00;95887.72;5092712;28;20855;-73
2023/03/12 01:49:49;;;;;;;12.23;8.27;;;;;;;-4.52;100.00;95889.81;5061218;28;20441;-73
2023/03/12 01:52:17;;;;;;;13.47;8.20;;;;;;;-4.40;100.00;95907.75;5070845;28;20833;-73
2023/03/12 01:55:00;;;;;;;12.20;9.53;;;;;;;-4.40;100.00;95908.53;5069788;28;20490;-73
2023/03/12 01:57:36;;;;;;;10.60;8.20;;;;;;;-4.41;100.00;95870.84;5060688;28;20471;-72
2023/03/12 02:00:12;;;;;;;10.37;8.33;;;;;;;-4.23;100.00;95898.91;5088707;28;20886;-72
2023/03/12 02:02:41;;;;;;;13.20;8.93;;;;;;;-4.24;100.00;95917.22;5094079;28;20439;-73
2023/03/12 02:05:16;;;;;;;8.97;8.10;;;;;;;-4.47;100.00;95882.13;5071594;28;20952;-73
2023/03/12 02:07:42;;;;;;;9.50;8.47;;;;;;;-4.28;100.00;95914.31;5072326;28;20432;-73
2023/03/12 02:10:10;;;;;;;9.13;6.37;;;;;;;-4.36;100.00;95895.91;5072027;28;20440;-73
2023/03/12 02:12:37;;;;;;;6.60;6.07;;;;;;;-4.42;100.00;95897.66;5071981;28;20521;-73
2023/03/12 02:15:05;;;;;;;7.30;6.60;;;;;;;-4.54;100.00;95887.50;5091481;28;20458;-73
2023/03/12 02:17:32;;;;;;;16.73;14.97;;;;;;;-4.46;100.00;95889.63;5075357;28;20432;-73
2023/03/12 02:20:06;;;;;;;13.17;11.93;;;;;;;-4.44;100.00;95909.25;5069271;28;20809;-73
2023/03/12 02:22:35;;;;;;;12.50;11.07;;;;;;;-4.51;100.00;95901.69;5071831;28;21032;-73
2023/03/12 02:25:29;;;;;;;10.87;8.03;;;;;;;-4.54;100.00;95915.88;5071946;28;20955;-73
2023/03/12 02:28:00;;;;;;;8.93;8.03;;;;;;;-4.49;100.00;95920.28;5059925;28;20530;-72
2023/03/12 02:30:29;;;;;;;13.17;11.37;;;;;;;-4.57;100.00;95912.97;5092027;28;20443;-72
2023/03/12 02:33:01;;;;;;;11.30;10.10;;;;;;;-4.59;100.00;95917.59;5061542;28;20463;-72
2023/03/12 02:35:28;;;;;;;7.50;5.27;;;;;;;-4.71;100.00;95897.06;5062172;28;20785;-72
2023/03/12 02:37:55;;;;;;;7.17;5.60;;;;;;;-4.71;100.00;95914.34;5054966;28;20983;-72
2023/03/12 02:40:30;;;;;;;6.83;6.20;;;;;;;-4.82;100.00;95928.91;5071493;28;20460;-72
2023/03/12 02:42:57;;;;;;;8.70;5.67;;;;;;;-4.84;100.00;95926.56;5054923;28;20455;-73
2023/03/12 02:45:24;;;;;;;6.60;5.20;;;;;;;-4.99;100.00;95908.31;5087404;28;20422;-73
2023/03/12 02:47:51;;;;;;;4.30;3.87;;;;;;;-4.85;100.00;95916.50;5082596;28;20515;-73
2023/03/12 02:50:18;;;;;;;7.73;4.97;;;;;;;-4.88;100.00;95920.34;5071264;28;20466;-73
2023/03/12 02:52:45;;;;;;;6.80;5.90;;;;;;;-4.84;100.00;95916.25;5080212;28;20464;-73
2023/03/12 02:55:12;;;;;;;5.70;4.70;;;;;;;-4.77;100.00;95910.94;5075628;28;20443;-73
2023/03/12 02:57:38;;;;;;;5.80;5.20;;;;;;;-4.93;100.00;95904.81;5071190;28;20435;-72
2023/03/12 03:00:12;;;;;;;6.37;5.20;;;;;;;-4.80;100.00;95925.09;5058091;28;20451;-73
2023/03/12 03:02:42;;;;;;;5.80;5.13;;;;;;;-4.84;100.00;95929.13;5080899;28;20513;-73
2023/03/12 03:05:10;;;;;;;7.17;6.03;;;;;;;-4.85;100.00;95927.59;5058159;28;20493;-73
2023/03/12 03:07:40;;;;;;;6.20;5.60;;;;;;;-4.89;100.00;95928.31;5063792;28;20847;-73
2023/03/12 03:10:09;;;;;;;7.20;6.40;;;;;;;-4.87;100.00;95924.47;5089233;28;20994;-73
2023/03/12 03:12:36;;;;;;;9.50;6.57;;;;;;;-4.81;100.00;95933.03;5074273;28;20470;-73
2023/03/12 03:15:04;;;;;;;10.07;6.70;;;;;;;-4.78;100.00;95935.16;5077511;28;20447;-73
2023/03/12 03:17:31;;;;;;;10.90;7.50;;;;;;;-4.93;100.00;95919.50;5062805;28;20424;-73
2023/03/12 03:19:57;;;;;;;11.17;7.80;;;;;;;-4.86;100.00;95941.50;5071095;28;20839;-73
2023/03/12 03:22:24;;;;;;;10.73;6.83;;;;;;;-4.83;100.00;95947.97;5070799;28;20452;-73
2023/03/12 03:24:52;;;;;;;11.53;6.83;;;;;;;-4.91;100.00;95943.22;5072393;28;20455;-73
2023/03/12 03:27:19;;;;;;;8.60;6.47;;;;;;;-4.97;100.00;95919.16;5072092;28;20482;-73
2023/03/12 03:29:46;;;;;;;10.30;5.97;;;;;;;-5.09;100.00;95906.38;5075802;28;20431;-73
2023/03/12 03:32:13;;;;;;;8.43;4.70;;;;;;;-4.98;100.00;95927.91;5090905;28;20481;-73
2023/03/12 03:34:40;;;;;;;5.57;4.90;;;;;;;-5.16;100.00;95905.78;5060613;28;20466;-73
2023/03/12 03:37:07;;;;;;;5.77;3.90;;;;;;;-4.95;100.00;95929.25;5061574;28;20940;-73
2023/03/12 03:39:34;;;;;;;5.60;4.37;;;;;;;-4.93;100.00;95938.31;5062740;28;20437;-73
2023/03/12 03:42:01;;;;;;;9.40;5.00;;;;;;;-4.97;100.00;95923.53;5069749;28;20433;-73
2023/03/12 03:44:31;;;;;;;5.87;5.27;;;;;;;-4.97;100.00;95916.59;5082395;28;20437;-73
2023/03/12 03:46:58;;;;;;;9.67;6.13;;;;;;;-4.80;100.00;95950.88;5084211;28;20419;-73
2023/03/12 03:49:24;;;;;;;6.23;5.40;;;;;;;-4.97;100.00;95916.59;5079041;28;20435;-73
2023/03/12 03:51:51;;;;;;;8.13;5.20;;;;;;;-5.00;100.00;95906.75;5060502;28;20523;-72
2023/03/12 03:54:25;;;;;;;5.23;4.73;;;;;;;-4.81;100.00;95946.72;5074878;28;20546;-73
2023/03/12 03:56:52;;;;;;;7.27;4.40;;;;;;;-5.14;100.00;95898.59;5057077;28;20527;-73
2023/03/12 03:59:19;;;;;;;4.67;4.00;;;;;;;-5.05;100.00;95917.03;5050422;28;20465;-73
2023/03/12 04:01:46;;;;;;;6.53;4.00;;;;;;;-4.76;100.00;95957.09;5070256;28;20485;-73
2023/03/12 04:04:13;;;;;;;8.27;5.37;;;;;;;-4.70;100.00;95952.78;5070418;28;20520;-74
2023/03/12 04:06:40;;;;;;;6.10;5.60;;;;;;;-4.88;100.00;95930.63;5088183;28;20443;-74
2023/03/12 04:09:07;;;;;;;6.53;4.50;;;;;;;-4.68;100.00;95944.78;5090737;28;20943;-74
2023/03/12 04:11:35;;;;;;;5.37;4.83;;;;;;;-4.75;100.00;95937.25;5090580;28;20439;-74
2023/03/12 04:14:04;;;;;;;5.53;5.13;;;;;;;-4.78;100.00;95927.41;5074010;28;20467;-74
2023/03/12 04:16:32;;;;;;;5.57;3.97;;;;;;;-4.72;100.00;95949.66;5090614;28;20443;-74
2023/03/12 04:19:00;;;;;;;4.07;3.67;;;;;;;-4.75;100.00;95944.97;5090622;28;20488;-74
2023/03/12 04:21:27;;;;;;;4.27;3.40;;;;;;;-4.65;100.00;95965.75;5090524;28;20808;-74
2023/03/12 04:23:54;;;;;;;6.37;4.77;;;;;;;-4.70;100.00;95947.63;5073800;28;20455;-74
2023/03/12 04:26:25;;;;;;;6.70;4.17;;;;;;;-4.96;100.00;95900.09;5090716;28;20447;-74
2023/03/12 04:28:53;;;;;;;3.67;3.37;;;;;;;-4.71;100.00;95945.28;5090516;28;20431;-74
2023/03/12 04:31:20;;;;;;;11.10;3.80;;;;;;;-4.64;100.00;95944.09;5073661;28;20461;-74
2023/03/12 04:33:50;;;;;;;6.73;4.10;;;;;;;-4.48;100.00;95969.06;5090392;28;20473;-74
2023/03/12 04:36:19;;;;;;;4.97;4.40;;;;;;;-4.46;100.00;95961.84;5057042;28;20439;-74
2023/03/12 04:38:47;;;;;;;6.70;4.87;;;;;;;-4.87;100.00;95901.28;5069964;28;20782;-74
2023/03/12 04:41:16;;;;;;;7.90;4.87;;;;;;;-4.86;100.00;95907.19;5072433;28;20478;-74
2023/03/12 04:44:06;;;;;;;4.60;4.00;;;;;;;-4.84;100.00;95916.25;5060430;28;20456;-74
2023/03/12 04:46:34;;;;;;;5.50;4.90;;;;;;;-4.84;100.00;95923.19;5068281;28;20435;-74
2023/03/12 04:49:02;;;;;;;4.40;3.63;;;;;;;-4.73;100.00;95944.75;5074608;28;21110;-74
2023/03/12 04:51:31;;;;;;;6.17;4.47;;;;;;;-4.85;100.00;95927.59;5057611;28;20497;-74
2023/03/12 04:54:00;;;;;;;5.10;4.30;;;;;;;-4.85;100.00;95916.50;5073472;28;20467;-74
2023/03/12 04:56:27;;;;;;;4.37;3.80;;;;;;;-4.72;100.00;95926.44;5057224;28;20819;-73
2023/03/12 04:58:54;;;;;;;4.80;4.40;;;;;;;-4.73;100.00;95927.47;5057336;28;20439;-74
2023/03/12 05:01:26;;;;;;;4.93;4.37;;;;;;;-4.59;100.00;95951.88;5073863;28;20493;-73
2023/03/12 05:03:54;;;;;;;10.40;4.90;;;;;;;-4.55;100.00;95947.03;5073523;28;20952;-74
2023/03/12 05:06:22;;;;;;;4.60;3.83;;;;;;;-4.57;100.00;95944.69;5072326;28;20483;-73
2023/03/12 05:08:49;;;;;;;6.03;4.27;;;;;;;-4.84;100.00;95918.81;5093627;28;20939;-74
2023/03/12 05:11:17;;;;;;;5.60;3.70;;;;;;;-4.49;100.00;95944.28;5093643;28;20442;-73
2023/03/12 05:13:44;;;;;;;5.77;4.20;;;;;;;-4.43;100.00;95946.91;5076642;28;20502;-74
2023/03/12 05:16:12;;;;;;;6.33;3.77;;;;;;;-4.46;100.00;95940.44;5090637;28;20436;-74
2023/03/12 05:18:39;;;;;;;5.33;4.83;;;;;;;-4.47;100.00;95933.72;5073476;28;20440;-73
2023/03/12 05:21:11;;;;;;;5.23;4.70;;;;;;;-4.42;100.00;95946.66;5073069;28;20468;-73
2023/03/12 05:23:38;;;;;;;5.07;4.67;;;;;;;-4.32;100.00;95946.78;5067329;28;20987;-73
2023/03/12 05:26:05;;;;;;;4.73;4.07;;;;;;;-4.32;100.00;95944.22;5058646;28;20970;-73
2023/03/12 05:28:33;;;;;;;6.30;4.90;;;;;;;-4.38;100.00;95914.22;5078671;28;20877;-73
2023/03/12 05:31:08;;;;;;;4.93;4.30;;;;;;;-4.29;100.00;95930.81;5084912;28;20967;-73
2023/03/12 05:33:36;;;;;;;4.53;4.13;;;;;;;-4.14;100.00;95943.09;5085448;28;20459;-73
2023/03/12 05:36:03;;;;;;;5.97;5.23;;;;;;;-4.12;100.00;95942.88;5062841;28;20479;-73
2023/03/12 05:38:29;;;;;;;8.33;6.13;;;;;;;-4.32;100.00;95917.63;5063176;28;20447;-73
2023/03/12 05:40:58;;;;;;;8.97;6.50;;;;;;;-4.29;100.00;95922.28;5079144;28;20435;-73
2023/03/12 05:43:27;;;;;;;9.30;6.10;;;;;;;-4.66;100.00;95862.84;5079548;28;20452;-73
2023/03/12 05:46:00;;;;;;;9.13;5.53;;;;;;;-4.11;100.00;95942.63;5069738;28;20448;-73
2023/03/12 05:48:27;;;;;;;13.00;5.50;;;;;;;-4.06;100.00;95952.22;5072677;28;20444;-73
2023/03/12 05:50:54;;;;;;;7.47;4.13;;;;;;;-4.01;100.00;95947.88;5056134;28;20424;-73
2023/03/12 05:53:22;;;;;;;5.47;4.60;;;;;;;-4.07;100.00;95943.69;5085374;28;20455;-73
2023/03/12 05:55:49;;;;;;;5.17;4.37;;;;;;;-4.18;100.00;95918.81;5055909;28;20432;-73
2023/03/12 05:58:16;;;;;;;6.50;5.00;;;;;;;-3.92;100.00;95956.75;5053433;28;20433;-73
2023/03/12 06:00:43;;;;;;;5.10;3.90;;;;;;;-3.87;100.00;95956.81;5072365;28;20536;-73
2023/03/12 06:03:12;;;;;;;4.40;4.00;;;;;;;-3.96;100.00;95932.47;5085774;28;20463;-73
2023/03/12 06:05:40;;;;;;;5.53;4.90;;;;;;;-3.89;100.00;95938.19;5064760;28;20439;-73
2023/03/12 06:08:06;;;;;;;3.67;3.37;;;;;;;-3.98;100.00;95944.06;5062422;28;20843;-74
2023/03/12 06:10:33;;;;;;;5.93;4.70;;;;;;;-4.18;100.00;95929.91;5075708;28;20522;-74
2023/03/12 06:13:00;;;;;;;7.27;5.60;;;;;;;-4.06;100.00;95941.91;5092217;28;20464;-74
2023/03/12 06:15:26;;;;;;;5.00;4.53;;;;;;;-4.04;100.00;95943.22;5075520;28;20550;-74
2023/03/12 06:17:53;;;;;;;8.50;4.63;;;;;;;-4.05;100.00;95946.03;5075434;28;20427;-74
2023/03/12 06:20:22;;;;;;;5.40;4.40;;;;;;;-4.31;100.00;95908.88;5075671;28;20506;-75
2023/03/12 06:22:48;;;;;;;5.53;4.43;;;;;;;-4.12;100.00;95932.56;5075526;28;20569;-74
2023/03/12 06:25:15;;;;;;;6.30;4.80;;;;;;;-4.34;100.00;95917.09;5093498;28;20528;-74
2023/03/12 06:27:42;;;;;;;6.03;5.43;;;;;;;-4.07;100.00;95948.88;5091990;28;20990;-74
2023/03/12 06:30:09;;;;;;;5.67;4.20;;;;;;;-4.08;100.00;95931.81;5091975;28;20447;-74
2023/03/12 06:32:36;;;;;;;6.10;4.80;;;;;;;-4.00;100.00;95951.28;5091814;28;20546;-74
2023/03/12 06:35:04;;;;;;;5.37;4.70;;;;;;;-4.08;100.00;95925.88;5091782;28;20467;-74
2023/03/12 06:37:31;;;;;;;5.40;4.90;;;;;;;-4.18;100.00;95893.78;5092005;28;20420;-74
2023/03/12 06:39:57;;;;;;;7.33;5.57;;;;;;;-3.94;100.00;95939.97;5066611;28;20434;-74
2023/03/12 06:42:25;;;;;;;4.90;4.47;;;;;;;-4.00;100.00;95926.22;5071467;28;20590;-74
2023/03/12 06:44:52;;;;;;;6.27;4.50;;;;;;;-3.76;100.00;95959.47;5083151;28;20822;-75
2023/03/12 06:47:19;;;;;;;5.00;4.60;;;;;;;-3.66;100.00;95959.59;5087914;28;20874;-74
2023/03/12 06:49:46;;;;;;;8.67;5.87;;;;;;;-3.65;100.00;95953.38;5071403;28;20527;-73
2023/03/12 06:52:12;;;;;;;7.07;5.43;;;;;;;-3.61;100.00;95947.47;5084868;28;20444;-73
2023/03/12 06:54:39;;;;;;;5.80;4.33;;;;;;;-3.60;100.00;95925.81;5071214;28;20904;-73
2023/03/12 06:57:06;;;;;;;5.97;4.80;;;;;;;-3.48;100.00;95950.69;5086227;28;20486;-73
2023/03/12 06:59:32;;;;;;;11.00;7.30;;;;;;;-3.34;100.00;95949.25;5071243;28;20486;-73
2023/03/12 07:02:00;;;;;;;6.40;5.20;;;;;;;-3.07;100.00;95959.50;5084572;28;20439;-73
2023/03/12 07:04:26;;;;;;;5.17;4.77;;;;;;;-3.25;100.00;95947.78;5066400;28;20473;-73
2023/03/12 07:06:53;;;;;;;6.20;5.30;;;;;;;-3.31;100.00;95938.44;5071687;28;20464;-73
2023/03/12 07:09:20;;;;;;;6.37;4.97;;;;;;;-3.11;100.00;95959.25;5072442;28;20442;-73
2023/03/12 07:11:46;;;;;;;5.67;5.17;;;;;;;-2.97;100.00;95946.66;5085930;28;20417;-73
2023/03/12 07:14:13;;;;;;;6.90;5.83;;;;;;;-2.69;100.00;95956.66;5083726;28;20463;-74
2023/03/12 07:16:39;;;;;;;7.83;4.73;;;;;;;-2.61;100.00;95958.00;5054978;28;20804;-74
2023/03/12 07:19:06;;;;;;;8.50;6.00;;;;;;;-2.66;100.00;95945.03;5085389;28;20458;-74
2023/03/12 07:21:33;;;;;;;5.97;5.47;;;;;;;-2.98;100.00;95921.84;5074263;28;20439;-74
2023/03/12 07:23:59;;;;;;;7.20;5.60;;;;;;;-2.52;100.00;95974.59;5090904;28;20551;-74
2023/03/12 07:26:26;;;;;;;7.40;5.37;;;;;;;-2.42;100.00;95973.84;5092357;28;20943;-74
2023/03/12 07:28:53;;;;;;;7.07;4.47;;;;;;;-2.40;100.00;95966.63;5091018;28;20519;-74
2023/03/12 07:31:20;;;;;;;5.80;4.90;;;;;;;-2.58;100.00;95967.06;5083975;28;20446;-74
2023/03/12 07:33:46;;;;;;;5.57;5.07;;;;;;;-2.35;100.00;95934.81;5070523;28;20454;-74
2023/03/12 07:36:13;;;;;;;5.50;5.00;;;;;;;-2.36;100.00;95925.50;5054067;28;20517;-74
2023/03/12 07:38:40;;;;;;;8.33;5.90;;;;;;;-2.05;100.00;95955.63;5054090;28;20816;-74
2023/03/12 07:41:07;;;;;;;9.67;6.43;;;;;;;-2.10;100.00;95963.38;5070703;28;20949;-74
2023/03/12 07:43:34;;;;;;;5.27;4.77;;;;;;;-1.93;100.00;95960.56;5070462;28;20448;-74
2023/03/12 07:46:01;;;;;;;8.47;6.23;;;;;;;-2.11;100.00;95964.41;5076797;28;20459;-74
2023/03/12 07:48:28;;;;;;;7.20;6.00;;;;;;;-2.13;100.00;95935.41;5063895;28;20435;-74
2023/03/12 07:50:54;;;;;;;6.70;6.00;;;;;;;-2.05;100.00;95944.47;5090733;28;20427;-74
2023/03/12 07:53:21;;;;;;;5.70;5.20;;;;;;;-1.72;100.00;95969.94;5090499;28;20455;-74
2023/03/12 07:55:48;;;;;;;5.63;4.93;;;;;;;-1.79;100.00;95938.31;5073919;28;20508;-74
2023/03/12 07:58:15;;;;;;;4.60;4.20;;;;;;;-1.42;100.00;95956.25;5090578;28;20435;-74
2023/03/12 08:00:43;;;;;;;8.13;5.57;;;;;;;-1.49;100.00;95966.84;5090746;28;20419;-74
2023/03/12 08:03:10;;;;;;;5.73;4.97;;;;;;;-1.60;100.00;95936.78;5089570;28;20504;-74
2023/03/12 08:05:37;;;;;;;7.17;5.80;;;;;;;-1.39;100.00;95955.72;5070425;28;20439;-74
2023/03/12 08:08:05;;;;;;;6.23;4.90;;;;;;;-1.33;100.00;95959.09;5071517;28;20428;-75
2023/03/12 08:10:31;;;;;;;6.30;4.50;;;;;;;-1.14;100.00;95936.78;5091935;28;20510;-75
2023/03/12 08:12:58;;;;;;;6.10;4.50;;;;;;;-1.25;100.00;95945.59;5091741;28;20447;-75
2023/03/12 08:15:25;;;;;;;6.40;4.80;;;;;;;-1.14;100.00;95957.53;5091855;28;20910;-75
2023/03/12 08:17:51;;;;;;;9.53;4.67;;;;;;;-1.23;100.00;95966.84;5077305;28;20966;-75
2023/03/12 08:20:18;;;;;;;6.03;5.43;;;;;;;-1.59;100.00;95904.66;5077786;28;20526;-75
2023/03/12 08:22:45;;;;;;;5.73;5.23;;;;;;;-1.03;100.00;95955.72;5076184;28;20509;-75
2023/03/12 08:25:12;;;;;;;5.47;5.07;;;;;;;-1.09;100.00;95928.22;5074224;28;20439;-75
2023/03/12 08:27:38;;;;;;;5.57;5.07;;;;;;;-0.77;100.00;95954.63;5074213;28;20932;-75
2023/03/12 08:30:05;;;;;;;4.93;4.53;;;;;;;-0.73;100.00;95952.28;5074143;28;20451;-75
2023/03/12 08:32:32;;;;;;;6.43;5.33;;;;;;;-0.91;100.00;95938.06;5074038;28;21037;-75
2023/03/12 08:34:59;;;;;;;6.73;5.70;;;;;;;-0.65;100.00;95934.34;5053902;28;20473;-75
2023/03/12 08:37:26;;;;;;;5.40;4.90;;;;;;;-0.28;100.00;95948.75;5069713;28;20654;-75
2023/03/12 08:39:53;;;;;;;6.43;5.10;;;;;;;-0.35;100.00;95930.88;5073904;28;20431;-75
2023/03/12 08:42:20;;;;;;;5.33;4.60;;;;;;;-0.02;100.00;95959.81;5073732;28;20547;-75
2023/03/12 08:44:46;;;;;;;9.53;5.03;;;;;;;0.07;100.00;95947.81;5073927;28;20939;-75
2023/03/12 08:47:13;;;;;;;5.87;5.37;;;;;;;0.02;100.00;95962.66;5067480;28;20851;-75
2023/03/12 08:49:39;;;;;;;5.57;4.67;;;;;;;0.10;100.00;95959.50;5073742;28;20523;-75
2023/03/12 08:52:06;;;;;;;9.40;4.70;;;;;;;0.09;100.00;95956.13;5056989;28;21009;-75
2023/03/12 08:54:33;;;;;;;6.43;5.20;;;;;;;-0.03;100.00;95921.88;5073551;28;20842;-75
2023/03/12 08:56:59;;;;;;;5.90;4.90;;;;;;;0.16;100.00;95941.03;5074936;28;20515;-75
2023/03/12 08:59:26;;;;;;;8.43;5.80;;;;;;;0.44;100.00;95955.13;5073550;28;20446;-75
2023/03/12 09:01:53;;;;;;;6.53;5.87;;;;;;;0.60;100.00;95953.19;5074707;28;20955;-75
2023/03/12 09:04:19;;;;;;;6.37;4.17;;;;;;;0.69;100.00;95940.41;5076962;28;20440;-75
2023/03/12 09:06:46;;;;;;;5.70;4.33;;;;;;;0.86;100.00;95954.56;5093730;28;20493;-75
2023/03/12 09:09:13;;;;;;;5.13;4.70;;;;;;;0.79;100.00;95940.28;5074544;28;20876;-75
2023/03/12 09:11:39;;;;;;;5.97;4.23;;;;;;;1.08;100.00;95961.94;5056681;28;20811;-76
2023/03/12 09:14:06;;;;;;;4.60;3.70;;;;;;;1.13;100.00;95914.25;5056536;28;20448;-76
2023/03/12 09:16:53;;;;;;;4.03;3.73;;;;;;;1.37;100.00;95929.88;5073316;28;20431;-76
2023/03/12 09:19:20;;;;;;;8.50;4.30;;;;;;;1.51;100.00;95945.63;5057530;28;20527;-76
2023/03/12 09:21:46;;;;;;;6.13;3.90;;;;;;;1.62;100.00;95926.22;5093357;28;20546;-75
2023/03/12 09:24:13;;;;;;;3.70;3.40;;;;;;;1.90;100.00;95940.22;5093301;28;20873;-75
2023/03/12 09:26:40;;;;;;;4.53;4.03;;;;;;;1.91;100.00;95939.94;5076564;28;20440;-75
2023/03/12 09:29:07;;;;;;;7.37;4.83;;;;;;;1.68;100.00;95915.44;5093412;28;20934;-75
2023/03/12 09:31:35;;;;;;;4.70;4.37;;;;;;;1.97;100.00;95945.84;5093220;28;20438;-75
2023/03/12 09:34:02;;;;;;;5.00;4.50;;;;;;;2.00;100.00;95940.06;5093023;28;20486;-75
2023/03/12 09:36:29;;;;;;;5.93;4.33;;;;;;;2.21;100.00;95936.13;5093003;28;20467;-75
2023/03/12 09:38:56;;;;;;;3.90;3.30;;;;;;;2.13;100.00;95939.38;5076502;28;20451;-75
2023/03/12 09:41:26;;;;;;;5.23;4.70;;;;;;;2.45;100.00;95950.94;5072933;28;20471;-76
2023/03/12 09:44:10;;;;;;;3.93;3.60;;;;;;;2.38;100.00;95938.25;5060093;28;21061;-76
2023/03/12 09:46:42;;;;;;;7.13;4.37;;;;;;;2.06;100.00;95895.41;5092202;28;20514;-76
2023/03/12 09:49:24;;;;;;;9.03;4.17;;;;;;;2.28;100.00;95927.97;5056774;28;20468;-76
2023/03/12 09:51:56;;;;;;;4.57;4.17;;;;;;;2.00;100.00;95916.59;5072900;28;20428;-76
2023/03/12 09:54:29;;;;;;;4.87;4.10;;;;;;;2.35;100.00;95938.81;5082330;28;20459;-76
2023/03/12 09:56:59;;;;;;;6.80;4.80;;;;;;;2.58;100.00;95940.56;5076162;28;20955;-76
2023/03/12 09:59:26;;;;;;;6.03;4.10;;;;;;;2.71;100.00;95910.34;5093086;28;20849;-76
2023/03/12 10:02:01;;;;;;;4.33;3.47;;;;;;;2.74;100.00;95888.91;5076986;28;20446;-78
2023/03/12 10:04:45;;;;;;;5.07;4.50;;;;;;;2.94;100.00;95935.56;5094159;28;20453;-77
2023/03/12 10:07:36;;;;;;;4.03;3.30;;;;;;;2.90;100.00;95942.41;5079605;28;20493;-77
2023/03/12 10:10:47;;;;;;;3.00;2.80;;;;;;;2.31;100.00;95842.09;5076048;28;20803;-77
2023/03/12 10:13:28;;;;;;;7.00;5.20;;;;;;;2.81;100.00;95922.47;4996908;28;20471;-77
2023/03/12 10:16:27;;;;;;;4.33;3.60;;;;;;;2.92;100.00;95940.28;5054129;28;20500;-77
2023/03/12 10:19:09;;;;;;;3.87;3.10;;;;;;;2.82;100.00;95942.28;5039299;28;20595;-76
2023/03/12 10:21:56;;;;;;;4.57;3.17;;;;;;;2.72;100.00;95901.47;5085875;28;20502;-76
2023/03/12 10:24:30;;;;;;;3.93;3.60;;;;;;;2.96;100.00;95937.88;5072508;28;20476;-76
2023/03/12 10:26:58;;;;;;;6.77;4.30;;;;;;;2.61;100.00;95890.41;5073599;28;20421;-76
2023/03/12 10:29:31;;;;;;;4.83;4.00;;;;;;;2.75;100.00;95908.72;5073655;28;20477;-76
2023/03/12 10:32:30;;;;;;;8.30;3.50;;;;;;;3.02;100.00;95939.34;5072373;28;20947;-76
2023/03/12 10:35:13;;;;;;;3.70;3.23;;;;;;;3.22;100.00;95944.22;5040936;28;20483;-76
2023/03/12 10:37:46;;;;;;;4.57;3.50;;;;;;;3.11;100.00;95936.84;5091076;28;20468;-76
2023/03/12 10:40:19;;;;;;;4.97;3.70;;;;;;;2.94;100.00;95914.66;5070452;28;20430;-77
2023/03/12 10:42:47;;;;;;;4.57;3.00;;;;;;;3.13;100.00;95937.31;5057330;28;20457;-78
2023/03/12 10:45:37;;;;;;;4.30;3.90;;;;;;;3.16;100.00;95932.28;5065015;28;20429;-77
2023/03/12 10:48:07;;;;;;;3.80;3.30;;;;;;;3.12;100.00;95930.56;5069338;28;20544;-76
2023/03/12 10:50:38;;;;;;;3.47;3.17;;;;;;;2.88;100.00;95899.38;5083207;28;20420;-76
2023/03/12 10:53:38;;;;;;;3.97;3.17;;;;;;;3.06;100.00;95910.81;5084533;28;20564;-76
2023/03/12 10:56:12;;;;;;;4.20;3.20;;;;;;;3.34;100.00;95930.69;5063185;28;20485;-76
2023/03/12 10:58:48;;;;;;;4.80;3.60;;;;;;;3.36;100.00;95925.94;5079342;28;20480;-76
2023/03/12 11:01:25;;;;;;;5.00;4.27;;;;;;;3.51;100.00;95923.03;5078930;28;20454;-76
2023/03/12 11:04:07;;;;;;;6.97;4.00;;;;;;;3.53;100.00;95910.47;5066150;28;20457;-76
2023/03/12 11:06:34;;;;;;;4.40;3.50;;;;;;;3.74;100.00;95915.28;5079149;28;20846;-75
2023/03/12 11:09:24;;;;;;;7.53;3.90;;;;;;;3.81;100.00;95916.44;5081543;28;20470;-76
2023/03/12 11:11:51;;;;;;;3.70;3.40;;;;;;;3.79;100.00;95892.44;5056279;28;20965;-76
2023/03/12 11:14:24;;;;;;;3.50;3.27;;;;;;;4.00;100.00;95926.00;5061302;28;20805;-76
2023/03/12 11:16:52;;;;;;;4.13;3.33;;;;;;;4.13;100.00;95925.97;5065943;28;20562;-76
2023/03/12 11:19:27;;;;;;;3.27;2.97;;;;;;;4.06;100.00;95904.69;5060993;28;20432;-76
2023/03/12 11:22:00;;;;;;;4.00;3.13;;;;;;;4.16;100.00;95908.91;5083418;28;20515;-76
2023/03/12 11:24:27;;;;;;;2.67;2.47;;;;;;;4.19;100.00;95907.56;5087795;28;20439;-76
2023/03/12 11:27:03;;;;;;;2.60;2.30;;;;;;;3.98;100.00;95905.38;5091409;28;20438;-76
2023/03/12 11:29:31;;;;;;;3.50;2.63;;;;;;;3.98;100.00;95909.81;5053365;28;20433;-76
2023/03/12 11:32:19;;;;;;;2.97;2.50;;;;;;;4.02;100.00;95914.19;5054149;28;20460;-76
2023/03/12 11:34:48;;;;;;;3.37;2.83;;;;;;;3.82;100.00;95888.44;5066503;28;20447;-76
2023/03/12 11:37:30;;;;;;;4.30;3.00;;;;;;;3.84;100.00;95894.16;5074598;28;20443;-76